Puerto Barrios Airport Puerto Barrios US
ICAO: MGPB
IATA: PBR
Category: Medium
Scheduled Services: Yes

Elevation: 33 ft
TransAlt. 0 ft.

Airport Communications:
TWR:118.4

MGPB Zoom In..

If you have problems with the map follow the link
https://www.worldairports.se/pages/airport.php?
ICAO=MGPB

Runways:

(A) RW 12 length 8850 ft width 115 ft
---- / hdg 127

(B) RW 30 length 8850 ft width 115 ft
---- / hdg 307

Location; MGPB
Day. 17 / Time. 22.00 Zulu
* Altimeter: 29.91
* Temperature: 27° c. 80.6°f.
* Wind from: 020° Speed 08 kn.
Dewpoint: 23° c.
Visibility: 10 km or more.
Clouds: Broken 1800 ft.

MGPB 172200Z 02008KT 9999 BKN018 27/23 Q1013 A2991


Wind From 020°
Speed 08 kn.

 
 
jpsmedia worldairports.se 2020   terms of use